Time;durP1;ratioP1;P1;durP2;ratioP2;P2;SDS_P1;SDS_P2;PMS_P1;PMS_P2;Temp;Humidity;BMP_temperature;BMP_pressure;BME280_temperature;BME280_humidity;BME280_pressure;Samples;Min_cycle;Max_cycle;Signal;HPM_P1;HPM_P2
2022/09/07 00:01:28;;;;;;;;;;;22.70;67.00;;;;;;7377566;19;20019;-86
2022/09/07 00:03:57;;;;;;;7.47;2.20;;;22.70;66.50;;;;;;7385620;19;20327;-86
2022/09/07 00:06:26;;;;;;;11.90;2.85;;;22.80;66.60;;;;;;7402821;19;20452;-86
2022/09/07 00:08:55;;;;;;;9.70;2.30;;;22.60;66.90;;;;;;7374413;19;20109;-86
2022/09/07 00:11:24;;;;;;;6.30;2.20;;;22.60;66.80;;;;;;7371273;19;20330;-85
2022/09/07 00:13:52;;;;;;;5.68;2.05;;;22.50;66.70;;;;;;7375081;19;20022;-86
2022/09/07 00:16:26;;;;;;;6.38;1.88;;;22.50;66.70;;;;;;7372835;19;20457;-85
2022/09/07 00:18:56;;;;;;;3.20;1.85;;;22.50;66.90;;;;;;7370478;19;20454;-85
2022/09/07 00:21:25;;;;;;;15.60;1.85;;;22.60;66.30;;;;;;7392557;19;20023;-85
2022/09/07 00:23:54;;;;;;;7.18;1.77;;;22.50;66.40;;;;;;7372917;19;20022;-85
2022/09/07 00:26:26;;;;;;;4.90;1.67;;;22.50;66.30;;;;;;7372570;19;20101;-85
2022/09/07 00:28:58;;;;;;;4.75;1.90;;;22.40;66.40;;;;;;7374300;19;20022;-86
2022/09/07 00:31:31;;;;;;;4.65;2.28;;;22.40;66.20;;;;;;7377006;19;20107;-85
2022/09/07 00:34:01;;;;;;;10.10;2.40;;;22.30;67.30;;;;;;7374642;19;20021;-85
2022/09/07 00:36:30;;;;;;;6.87;2.50;;;22.20;67.20;;;;;;7395622;19;20039;-85
2022/09/07 00:38:59;;;;;;;7.57;2.10;;;22.20;67.30;;;;;;7373991;19;20323;-85
2022/09/07 00:41:29;;;;;;;8.30;2.20;;;22.40;67.20;;;;;;7373482;19;20014;-85
2022/09/07 00:44:00;;;;;;;5.68;1.92;;;22.40;67.40;;;;;;7373404;19;20076;-85
2022/09/07 00:46:33;;;;;;;4.40;2.05;;;22.40;67.30;;;;;;7373063;19;20039;-85
2022/09/07 00:49:08;;;;;;;6.25;1.67;;;22.30;68.20;;;;;;7370486;19;20063;-85
2022/09/07 00:51:41;;;;;;;13.80;2.47;;;22.30;67.70;;;;;;7385866;19;20798;-84
2022/09/07 00:54:13;;;;;;;5.90;2.30;;;22.40;67.10;;;;;;7390162;19;20018;-85
2022/09/07 00:56:44;;;;;;;7.20;2.20;;;22.20;66.90;;;;;;7370288;19;20021;-85
2022/09/07 00:59:15;;;;;;;7.78;2.20;;;22.30;66.90;;;;;;7370186;19;20098;-85
2022/09/07 01:01:47;;;;;;;9.35;2.05;;;22.10;67.50;;;;;;7369789;19;20121;-85
2022/09/07 01:04:16;;;;;;;8.10;2.08;;;22.30;67.60;;;;;;7368368;19;20086;-86
2022/09/07 01:06:45;;;;;;;10.32;2.22;;;22.30;67.20;;;;;;7369980;19;20023;-86
2022/09/07 01:09:17;;;;;;;6.22;1.50;;;22.30;66.90;;;;;;7391456;19;20021;-86
2022/09/07 01:11:49;;;;;;;7.47;2.10;;;22.10;66.60;;;;;;7369912;19;20027;-86
2022/09/07 01:14:21;;;;;;;6.75;2.65;;;22.10;66.80;;;;;;7378710;19;20046;-86
2022/09/07 01:17:04;;;;;;;5.10;1.92;;;22.20;66.60;;;;;;7377975;19;20823;-86
2022/09/07 01:19:55;;;;;;;6.38;1.95;;;22.20;66.50;;;;;;7379952;19;20031;-86
2022/09/07 01:22:48;;;;;;;6.30;1.83;;;22.10;66.60;;;;;;7378443;19;20081;-86
2022/09/07 01:25:27;;;;;;;5.90;1.80;;;22.20;66.30;;;;;;7410478;19;20011;-86
2022/09/07 01:28:09;;;;;;;5.63;1.92;;;22.10;66.80;;;;;;7409098;19;20024;-86
2022/09/07 01:30:40;;;;;;;6.45;2.15;;;22.20;65.90;;;;;;7413982;19;20025;-84
2022/09/07 01:33:23;;;;;;;5.45;2.03;;;22.00;65.80;;;;;;7429712;19;20029;-85
2022/09/07 01:36:01;;;;;;;7.47;1.73;;;22.00;66.80;;;;;;7374973;19;20010;-85
2022/09/07 01:38:36;;;;;;;6.57;2.03;;;21.90;66.70;;;;;;7377205;19;20023;-86
2022/09/07 01:41:10;;;;;;;4.38;1.67;;;22.00;66.30;;;;;;7377516;19;20195;-85
2022/09/07 01:43:47;;;;;;;8.30;1.80;;;22.00;66.10;;;;;;7376928;19;20066;-86
2022/09/07 01:46:20;;;;;;;8.27;2.08;;;22.00;66.10;;;;;;7377286;19;20015;-85
2022/09/07 01:48:52;;;;;;;3.90;1.98;;;21.90;65.80;;;;;;7376455;19;20098;-85
2022/09/07 01:51:24;;;;;;;4.50;1.80;;;21.80;66.20;;;;;;7402348;19;20019;-85
2022/09/07 01:53:57;;;;;;;9.40;2.00;;;21.90;65.80;;;;;;7398156;19;20007;-86
2022/09/07 01:56:31;;;;;;;5.28;1.65;;;21.80;65.20;;;;;;7409868;19;20014;-85
2022/09/07 01:59:06;;;;;;;4.70;1.88;;;21.70;65.30;;;;;;7398944;19;20022;-86
2022/09/07 02:01:41;;;;;;;3.83;1.88;;;21.60;65.80;;;;;;7383237;19;20094;-86
2022/09/07 02:04:16;;;;;;;7.57;2.10;;;21.70;65.80;;;;;;7383388;19;20022;-86
2022/09/07 02:06:49;;;;;;;9.30;2.10;;;21.70;65.80;;;;;;7379546;19;20392;-85
2022/09/07 02:09:24;;;;;;;3.65;1.60;;;21.70;65.70;;;;;;7404431;19;20317;-86
2022/09/07 02:11:53;;;;;;;3.38;1.98;;;21.80;65.70;;;;;;7382155;19;20085;-86
2022/09/07 02:14:30;;;;;;;6.55;2.00;;;21.70;65.70;;;;;;7380143;19;20030;-85
2022/09/07 02:17:05;;;;;;;14.70;2.22;;;21.70;65.70;;;;;;7382219;19;20097;-85
2022/09/07 02:19:39;;;;;;;9.57;2.05;;;21.70;65.00;;;;;;7391338;19;20039;-85
2022/09/07 02:22:14;;;;;;;8.23;1.95;;;21.70;65.40;;;;;;7383536;19;20014;-86
2022/09/07 02:24:47;;;;;;;4.22;1.60;;;21.70;65.10;;;;;;7380350;19;20066;-85
2022/09/07 02:27:21;;;;;;;12.10;1.90;;;21.60;65.20;;;;;;7402963;19;20074;-85
2022/09/07 02:29:53;;;;;;;5.47;1.85;;;21.50;65.50;;;;;;7381123;19;20024;-85
2022/09/07 02:32:22;;;;;;;4.80;1.60;;;21.60;65.30;;;;;;7381351;19;20044;-86
2022/09/07 02:34:51;;;;;;;4.68;1.77;;;21.60;64.90;;;;;;7380659;19;20087;-86
2022/09/07 02:37:22;;;;;;;7.00;1.75;;;21.60;64.60;;;;;;7382142;19;20127;-86
2022/09/07 02:39:51;;;;;;;4.33;1.90;;;21.50;64.80;;;;;;7385344;19;20006;-86
2022/09/07 02:42:20;;;;;;;6.70;1.83;;;21.50;64.80;;;;;;7404387;19;20043;-86
2022/09/07 02:44:49;;;;;;;10.55;2.22;;;21.50;64.60;;;;;;7382394;19;20067;-86
2022/09/07 02:47:39;;;;;;;6.32;1.90;;;21.30;65.40;;;;;;7381508;19;20043;-86
2022/09/07 02:50:44;;;;;;;7.78;1.83;;;21.40;65.10;;;;;;7381892;19;20011;-86
2022/09/07 02:53:29;;;;;;;4.82;1.90;;;21.20;65.70;;;;;;7377780;19;20853;-85
2022/09/07 02:56:08;;;;;;;4.03;1.58;;;21.20;66.40;;;;;;7379943;19;20039;-86
2022/09/07 02:58:47;;;;;;;6.80;1.95;;;21.20;65.50;;;;;;7379251;19;20018;-85
2022/09/07 03:01:29;;;;;;;6.45;1.73;;;20.90;65.80;;;;;;7379375;19;20068;-85
2022/09/07 03:04:09;;;;;;;6.13;1.67;;;21.00;66.20;;;;;;7377639;19;20471;-85
2022/09/07 03:06:41;;;;;;;5.78;1.70;;;21.10;65.50;;;;;;7380215;19;20013;-84
2022/09/07 03:09:16;;;;;;;10.27;1.98;;;21.20;65.60;;;;;;7397742;19;20094;-85
2022/09/07 03:11:45;;;;;;;11.05;1.70;;;21.10;65.50;;;;;;7378164;19;20010;-85
2022/09/07 03:14:16;;;;;;;7.80;2.58;;;21.00;65.60;;;;;;7377888;19;20018;-85
2022/09/07 03:16:45;;;;;;;5.13;2.13;;;21.00;65.50;;;;;;7383397;19;20102;-85
2022/09/07 03:19:16;;;;;;;10.60;2.17;;;21.10;65.40;;;;;;7374967;19;20524;-85
2022/09/07 03:21:45;;;;;;;;;;;21.20;65.10;;;;;;7376718;19;20090;-85
2022/09/07 03:24:14;;;;;;;6.18;2.10;;;21.10;64.70;;;;;;7396121;19;19927;-85
2022/09/07 03:26:47;;;;;;;6.93;1.95;;;21.10;64.80;;;;;;7374659;19;20086;-86
2022/09/07 03:29:16;;;;;;;4.30;1.80;;;21.10;64.70;;;;;;7374639;19;20101;-86
2022/09/07 03:31:45;;;;;;;7.28;1.95;;;21.10;64.70;;;;;;7375353;19;20034;-86
2022/09/07 03:34:17;;;;;;;14.35;1.50;;;21.00;64.90;;;;;;7372541;19;20078;-86
2022/09/07 03:36:46;;;;;;;5.90;1.80;;;21.10;64.70;;;;;;7372832;19;20098;-86
2022/09/07 03:39:15;;;;;;;7.95;2.05;;;21.10;65.00;;;;;;7395027;19;20011;-86
2022/09/07 03:41:43;;;;;;;5.68;1.90;;;21.10;64.70;;;;;;7374659;19;20025;-86
2022/09/07 03:44:12;;;;;;;8.80;2.70;;;21.20;64.30;;;;;;7379191;19;20324;-86
2022/09/07 03:46:43;;;;;;;5.47;1.75;;;21.20;64.00;;;;;;7376608;19;20014;-86
2022/09/07 03:49:11;;;;;;;7.55;1.70;;;21.20;63.70;;;;;;7376023;19;20017;-86
2022/09/07 03:51:43;;;;;;;10.48;2.00;;;21.10;63.70;;;;;;7375261;19;20023;-86
2022/09/07 03:54:11;;;;;;;;;;;21.00;64.10;;;;;;7397471;19;20370;-85
2022/09/07 03:56:40;;;;;;;9.35;1.92;;;20.80;64.80;;;;;;7371308;19;19998;-86
2022/09/07 03:59:09;;;;;;;6.00;1.70;;;20.80;65.30;;;;;;7373259;19;20018;-85
2022/09/07 04:01:38;;;;;;;5.25;1.80;;;20.80;64.90;;;;;;7373285;19;20089;-86
2022/09/07 04:04:07;;;;;;;5.97;1.70;;;20.80;65.20;;;;;;7374118;19;20018;-86
2022/09/07 04:06:36;;;;;;;5.57;2.08;;;20.80;64.80;;;;;;7394565;19;20038;-86
2022/09/07 04:09:09;;;;;;;7.72;1.90;;;20.80;64.90;;;;;;7373422;19;20007;-86
2022/09/07 04:11:39;;;;;;;8.32;1.88;;;20.80;64.80;;;;;;7381604;19;20124;-86
2022/09/07 04:14:08;;;;;;;7.32;2.08;;;20.80;64.70;;;;;;7381196;19;20006;-86
2022/09/07 04:16:36;;;;;;;7.00;1.80;;;20.70;64.40;;;;;;7377435;19;20002;-86
2022/09/07 04:19:06;;;;;;;7.88;2.08;;;20.80;64.00;;;;;;7377589;19;20542;-86
2022/09/07 04:21:35;;;;;;;5.90;1.73;;;20.80;64.30;;;;;;7398007;19;20039;-86
2022/09/07 04:24:07;;;;;;;7.53;1.85;;;20.90;64.50;;;;;;7374357;19;20850;-85
2022/09/07 04:26:37;;;;;;;6.13;2.50;;;20.80;64.70;;;;;;7373976;19;20377;-86
2022/09/07 04:29:07;;;;;;;7.57;2.17;;;20.80;64.60;;;;;;7373283;19;20014;-86
2022/09/07 04:31:36;;;;;;;5.50;2.25;;;20.70;65.00;;;;;;7377465;19;20035;-86
2022/09/07 04:34:05;;;;;;;12.18;2.22;;;20.80;65.70;;;;;;7375149;19;20020;-86
2022/09/07 04:36:35;;;;;;;6.90;2.20;;;20.70;65.10;;;;;;7393106;19;20036;-86
2022/09/07 04:39:07;;;;;;;13.88;1.95;;;20.80;65.30;;;;;;7381856;19;20054;-87
2022/09/07 04:41:36;;;;;;;9.35;2.10;;;20.70;65.30;;;;;;7375306;19;20089;-87
2022/09/07 04:44:06;;;;;;;7.75;2.53;;;20.80;65.10;;;;;;7373271;19;20106;-86
2022/09/07 04:46:37;;;;;;;13.70;2.63;;;20.80;65.30;;;;;;7376331;19;20130;-86
2022/09/07 04:49:08;;;;;;;7.60;2.05;;;20.80;65.00;;;;;;7384728;19;20010;-85
2022/09/07 04:51:37;;;;;;;10.88;2.50;;;20.80;64.90;;;;;;7391132;19;20015;-85
2022/09/07 04:54:08;;;;;;;18.17;2.15;;;20.90;65.20;;;;;;7401050;19;20119;-85
2022/09/07 04:56:37;;;;;;;6.40;2.33;;;20.90;65.30;;;;;;7377525;19;20036;-87
2022/09/07 04:59:06;;;;;;;7.28;2.33;;;20.80;65.80;;;;;;7380600;19;20119;-86
2022/09/07 05:01:35;;;;;;;12.27;2.30;;;20.90;65.60;;;;;;7378858;19;20018;-87
2022/09/07 05:04:05;;;;;;;9.88;2.15;;;20.90;65.50;;;;;;7382991;19;20035;-86
2022/09/07 05:06:34;;;;;;;10.10;2.13;;;20.90;65.70;;;;;;7406453;19;20014;-86
2022/09/07 05:09:03;;;;;;;8.35;2.45;;;21.00;65.90;;;;;;7386702;19;20021;-86
2022/09/07 05:11:34;;;;;;;9.60;2.28;;;21.00;65.80;;;;;;7381281;19;20807;-86
2022/09/07 05:14:04;;;;;;;6.03;2.20;;;20.90;66.00;;;;;;7377038;19;20018;-86
2022/09/07 05:16:33;;;;;;;10.38;2.67;;;21.00;66.10;;;;;;7377903;19;20097;-87
2022/09/07 05:19:04;;;;;;;5.47;2.10;;;21.10;65.90;;;;;;7378246;19;20098;-86
2022/09/07 05:21:34;;;;;;;8.82;2.10;;;21.10;65.70;;;;;;7400219;19;20047;-86
2022/09/07 05:24:04;;;;;;;9.70;2.50;;;21.10;65.80;;;;;;7378179;19;20014;-86
2022/09/07 05:26:38;;;;;;;12.38;2.90;;;21.20;65.50;;;;;;7379019;19;20117;-87
2022/09/07 05:29:08;;;;;;;5.45;2.03;;;21.20;65.50;;;;;;7377793;19;20021;-86
2022/09/07 05:31:36;;;;;;;14.00;2.40;;;21.20;65.20;;;;;;7377466;19;20453;-86
2022/09/07 05:34:05;;;;;;;11.18;2.58;;;21.20;65.70;;;;;;7382933;19;20426;-86
2022/09/07 05:36:34;;;;;;;6.18;2.40;;;21.10;66.00;;;;;;7406748;19;20792;-85
2022/09/07 05:39:02;;;;;;;8.15;3.10;;;21.10;66.10;;;;;;7380691;19;20035;-86
2022/09/07 05:41:31;;;;;;;18.30;2.75;;;21.10;66.20;;;;;;7377645;19;20079;-86
2022/09/07 05:44:03;;;;;;;9.07;2.63;;;21.10;66.20;;;;;;7380082;19;20018;-85
2022/09/07 05:46:31;;;;;;;10.73;2.95;;;21.20;66.10;;;;;;7376918;19;20101;-86
2022/09/07 05:49:02;;;;;;;11.18;3.40;;;21.10;66.50;;;;;;7377073;19;20448;-85
2022/09/07 05:51:30;;;;;;;12.80;3.30;;;21.00;66.80;;;;;;7399881;19;20014;-86
2022/09/07 05:53:59;;;;;;;10.18;3.05;;;20.80;66.90;;;;;;7377621;19;20025;-86
2022/09/07 05:56:28;;;;;;;13.15;2.83;;;20.80;68.40;;;;;;7375322;19;20054;-85
2022/09/07 05:58:57;;;;;;;14.75;2.80;;;20.90;67.70;;;;;;7379482;19;20613;-85
2022/09/07 06:01:28;;;;;;;8.98;2.53;;;20.90;66.90;;;;;;7379806;19;20031;-85
2022/09/07 06:03:56;;;;;;;;;;;21.00;67.10;;;;;;7381390;19;20083;-85
2022/09/07 06:06:25;;;;;;;11.40;2.50;;;21.00;67.20;;;;;;7407306;19;19922;-86
2022/09/07 06:08:56;;;;;;;9.90;2.80;;;21.00;67.20;;;;;;7377289;19;20014;-85
2022/09/07 06:11:27;;;;;;;11.68;2.95;;;21.10;67.20;;;;;;7377856;19;20014;-85
2022/09/07 06:13:56;;;;;;;13.75;2.80;;;21.10;67.50;;;;;;7377458;19;20021;-85
2022/09/07 06:16:24;;;;;;;11.55;2.72;;;21.10;67.10;;;;;;7376299;19;20096;-84
2022/09/07 06:18:56;;;;;;;9.75;2.70;;;21.30;67.00;;;;;;7377514;19;20078;-85
2022/09/07 06:21:25;;;;;;;;;;;21.20;67.10;;;;;;7401265;19;20019;-85
2022/09/07 06:23:53;;;;;;;12.50;2.70;;;21.10;67.40;;;;;;7378228;19;19918;-85
2022/09/07 06:26:22;;;;;;;11.02;2.95;;;21.20;67.60;;;;;;7379128;19;20078;-86
2022/09/07 06:28:51;;;;;;;12.05;2.83;;;21.20;67.70;;;;;;7380746;19;20055;-86
2022/09/07 06:31:21;;;;;;;8.77;2.88;;;21.20;67.60;;;;;;7385942;19;20022;-85
2022/09/07 06:33:51;;;;;;;9.98;2.78;;;21.30;67.50;;;;;;7382834;19;20062;-85
2022/09/07 06:36:24;;;;;;;12.55;2.65;;;21.30;67.40;;;;;;7409083;19;20090;-85
2022/09/07 06:38:54;;;;;;;10.32;2.53;;;21.30;67.70;;;;;;7379223;19;20018;-85
2022/09/07 06:41:24;;;;;;;8.77;2.50;;;21.30;67.80;;;;;;7377859;19;20063;-85
2022/09/07 06:43:53;;;;;;;10.00;2.45;;;21.30;68.00;;;;;;7379195;19;20483;-85
2022/09/07 06:46:21;;;;;;;9.40;2.35;;;21.30;67.90;;;;;;7378082;19;20014;-86
2022/09/07 06:48:53;;;;;;;11.77;2.58;;;21.40;67.90;;;;;;7379149;19;20015;-86
2022/09/07 06:51:27;;;;;;;13.82;2.90;;;21.50;68.20;;;;;;7400358;19;20063;-85
2022/09/07 06:54:00;;;;;;;16.30;2.55;;;21.60;68.30;;;;;;7377939;19;20083;-86
2022/09/07 06:56:29;;;;;;;13.38;2.58;;;21.70;67.90;;;;;;7381832;19;20420;-87
2022/09/07 06:58:59;;;;;;;14.52;2.80;;;21.60;67.50;;;;;;7378490;19;20082;-86
2022/09/07 07:01:28;;;;;;;12.43;2.38;;;21.60;66.70;;;;;;7381398;19;20074;-87
2022/09/07 07:03:57;;;;;;;9.20;2.45;;;21.70;67.20;;;;;;7383973;19;20602;-86
2022/09/07 07:06:35;;;;;;;12.63;2.33;;;21.80;67.20;;;;;;7399652;19;20022;-86
2022/09/07 07:09:04;;;;;;;15.38;2.53;;;21.90;66.60;;;;;;7376034;19;20014;-87
2022/09/07 07:11:35;;;;;;;17.98;2.58;;;21.60;66.60;;;;;;7374402;19;20469;-87
2022/09/07 07:14:04;;;;;;;14.75;3.05;;;21.80;66.40;;;;;;7377361;19;20350;-87
2022/09/07 07:16:33;;;;;;;15.32;2.67;;;21.60;66.80;;;;;;7376380;19;20022;-86
2022/09/07 07:19:02;;;;;;;14.38;3.00;;;21.80;66.60;;;;;;7374784;19;20083;-86
2022/09/07 07:21:33;;;;;;;14.70;2.33;;;21.90;66.70;;;;;;7396358;19;20417;-86
2022/09/07 07:24:05;;;;;;;14.02;2.50;;;22.10;66.30;;;;;;7382312;19;20657;-86
2022/09/07 07:26:34;;;;;;;24.13;2.92;;;22.10;65.80;;;;;;7376567;19;20018;-86
2022/09/07 07:29:03;;;;;;;15.48;2.33;;;22.20;66.10;;;;;;7379441;19;20044;-86
2022/09/07 07:31:32;;;;;;;11.77;2.60;;;22.20;65.50;;;;;;7381799;19;20449;-86
2022/09/07 07:34:00;;;;;;;17.30;2.72;;;22.20;65.50;;;;;;7378851;19;20084;-86
2022/09/07 07:36:29;;;;;;;18.73;3.17;;;22.10;65.20;;;;;;7396202;19;20753;-86
2022/09/07 07:39:01;;;;;;;16.42;2.97;;;22.20;65.90;;;;;;7376939;19;20811;-86
2022/09/07 07:41:31;;;;;;;;;;;22.30;66.10;;;;;;7379189;19;20078;-86
2022/09/07 07:44:00;;;;;;;16.77;2.97;;;22.30;65.50;;;;;;7379600;19;19919;-86
2022/09/07 07:46:30;;;;;;;14.20;2.90;;;22.40;65.70;;;;;;7379584;19;20022;-85
2022/09/07 07:48:58;;;;;;;16.92;2.70;;;22.30;65.00;;;;;;7377610;19;20056;-86
2022/09/07 07:51:27;;;;;;;13.50;2.83;;;22.10;65.10;;;;;;7400056;19;20018;-85
2022/09/07 07:53:56;;;;;;;17.58;2.60;;;21.90;66.10;;;;;;7375425;19;20014;-85
2022/09/07 07:56:27;;;;;;;21.52;2.83;;;21.70;66.70;;;;;;7379258;19;20018;-85
2022/09/07 07:58:56;;;;;;;;;;;21.80;67.30;;;;;;7385360;19;20122;-85
2022/09/07 08:01:25;;;;;;;13.63;2.75;;;21.90;66.70;;;;;;7379573;19;19955;-85
2022/09/07 08:03:53;;;;;;;17.10;2.88;;;22.00;67.20;;;;;;7376442;19;20026;-85
2022/09/07 08:06:23;;;;;;;11.93;2.55;;;22.10;67.20;;;;;;7399671;19;20014;-86
2022/09/07 08:08:51;;;;;;;17.25;2.63;;;22.20;66.60;;;;;;7378422;19;20019;-86
2022/09/07 08:11:21;;;;;;;20.05;3.00;;;22.10;66.10;;;;;;7378320;19;20089;-86
2022/09/07 08:13:54;;;;;;;16.40;3.30;;;22.10;66.50;;;;;;7377966;19;20086;-86
2022/09/07 08:16:22;;;;;;;19.60;2.55;;;22.20;66.50;;;;;;7375004;19;20018;-87
2022/09/07 08:18:52;;;;;;;19.65;3.35;;;22.30;66.50;;;;;;7375859;19;20707;-86
2022/09/07 08:21:21;;;;;;;20.13;3.35;;;22.40;66.30;;;;;;7398797;19;20085;-86
2022/09/07 08:23:49;;;;;;;22.20;3.03;;;22.50;66.30;;;;;;7380884;19;20476;-86
2022/09/07 08:26:18;;;;;;;16.50;3.00;;;22.50;65.80;;;;;;7385184;19;20515;-85
2022/09/07 08:28:47;;;;;;;11.38;2.58;;;22.60;65.40;;;;;;7376145;19;20090;-86
2022/09/07 08:31:19;;;;;;;18.35;2.70;;;22.60;65.60;;;;;;7374564;19;20024;-85
2022/09/07 08:33:47;;;;;;;15.18;2.67;;;22.50;65.60;;;;;;7376303;19;20023;-86
2022/09/07 08:36:18;;;;;;;22.90;3.10;;;22.60;65.80;;;;;;7397806;19;20081;-85
2022/09/07 08:38:48;;;;;;;14.95;2.65;;;22.70;65.90;;;;;;7375951;19;20064;-85
2022/09/07 08:41:39;;;;;;;15.98;2.72;;;22.80;65.20;;;;;;7375354;19;20533;-85
2022/09/07 08:44:13;;;;;;;15.15;2.58;;;22.70;65.50;;;;;;7374341;19;20032;-84
2022/09/07 08:46:49;;;;;;;21.02;3.80;;;22.80;65.90;;;;;;7374307;19;20015;-85
2022/09/07 08:49:21;;;;;;;19.10;3.55;;;22.90;65.30;;;;;;7375295;19;20010;-85
2022/09/07 08:51:56;;;;;;;15.65;2.45;;;23.10;65.00;;;;;;7376508;19;20022;-85
2022/09/07 08:54:25;;;;;;;15.88;2.72;;;23.10;64.80;;;;;;7405246;19;20046;-85
2022/09/07 08:56:57;;;;;;;15.93;2.97;;;23.20;64.80;;;;;;7376608;19;20050;-85
2022/09/07 08:59:29;;;;;;;19.52;3.35;;;23.10;64.50;;;;;;7375781;19;20117;-85
2022/09/07 09:02:00;;;;;;;28.40;3.20;;;23.10;64.80;;;;;;7383007;19;20503;-85
2022/09/07 09:04:30;;;;;;;;;;;23.10;64.20;;;;;;7379360;19;20566;-85
2022/09/07 09:07:10;;;;;;;20.40;3.65;;;23.10;65.10;;;;;;7374384;19;20047;-84
2022/09/07 09:10:04;;;;;;;20.95;2.85;;;23.30;64.60;;;;;;7375344;19;20367;-84
2022/09/07 09:12:42;;;;;;;19.60;3.05;;;23.40;64.20;;;;;;7394412;19;20517;-84
2022/09/07 09:15:20;;;;;;;17.75;3.22;;;23.60;64.00;;;;;;7374240;19;20015;-84
2022/09/07 09:17:59;;;;;;;20.13;3.13;;;23.70;63.30;;;;;;7370548;19;20441;-84
2022/09/07 09:20:34;;;;;;;19.58;3.25;;;23.70;62.30;;;;;;7373967;19;20350;-84
2022/09/07 09:23:11;;;;;;;24.20;3.28;;;23.80;62.70;;;;;;7375620;19;20094;-83
2022/09/07 09:25:44;;;;;;;20.52;3.55;;;23.80;62.10;;;;;;7372201;19;20011;-83
2022/09/07 09:28:14;;;;;;;25.45;2.83;;;23.40;62.80;;;;;;7371527;19;20703;-83
2022/09/07 09:30:43;;;;;;;23.10;3.13;;;23.40;63.20;;;;;;7373629;19;20460;-83
2022/09/07 09:33:20;;;;;;;25.83;3.40;;;23.50;62.90;;;;;;7395925;19;20014;-84
2022/09/07 09:35:51;;;;;;;14.57;3.03;;;23.60;61.70;;;;;;7386234;19;20031;-85
2022/09/07 09:38:32;;;;;;;28.02;3.25;;;23.50;62.50;;;;;;7388061;19;20015;-85
2022/09/07 09:41:05;;;;;;;17.80;3.58;;;23.60;62.70;;;;;;7392474;19;20841;-85
2022/09/07 09:43:46;;;;;;;15.50;2.80;;;23.80;62.30;;;;;;7392212;19;20010;-85
2022/09/07 09:46:22;;;;;;;14.88;2.90;;;23.60;60.90;;;;;;7389828;19;20022;-85
2022/09/07 09:48:57;;;;;;;23.30;3.50;;;23.30;61.60;;;;;;7385983;19;20022;-86
2022/09/07 09:51:28;;;;;;;20.88;2.85;;;23.30;61.40;;;;;;7404179;19;20035;-85
2022/09/07 09:54:06;;;;;;;27.48;3.38;;;23.00;62.50;;;;;;7381067;19;20018;-85
2022/09/07 09:56:40;;;;;;;18.48;3.00;;;22.90;62.60;;;;;;7388670;19;20010;-85
2022/09/07 09:59:23;;;;;;;18.83;3.25;;;22.60;63.60;;;;;;7383505;19;20018;-86
2022/09/07 10:01:53;;;;;;;21.60;3.45;;;22.60;63.60;;;;;;7379234;19;20457;-85
2022/09/07 10:04:32;;;;;;;22.40;3.05;;;22.50;64.10;;;;;;7379852;19;20122;-83
2022/09/07 10:07:09;;;;;;;13.27;2.92;;;22.60;63.60;;;;;;7375331;19;20010;-85
2022/09/07 10:09:41;;;;;;;16.63;3.03;;;22.40;64.60;;;;;;7376742;19;20019;-84
2022/09/07 10:12:24;;;;;;;20.05;2.92;;;22.70;63.50;;;;;;7402634;19;20031;-85
2022/09/07 10:14:55;;;;;;;19.85;3.10;;;22.90;63.90;;;;;;7382262;19;20022;-84
2022/09/07 10:17:28;;;;;;;15.07;2.90;;;23.10;63.40;;;;;;7382550;19;20588;-85
2022/09/07 10:20:04;;;;;;;15.30;2.58;;;23.10;63.50;;;;;;7381328;19;20014;-85
2022/09/07 10:22:35;;;;;;;21.60;2.67;;;23.20;63.10;;;;;;7379433;19;20468;-84
2022/09/07 10:25:06;;;;;;;20.60;3.30;;;22.90;63.40;;;;;;7381478;19;20557;-84
2022/09/07 10:27:39;;;;;;;22.80;3.53;;;22.70;63.80;;;;;;7405150;19;20397;-85
2022/09/07 10:30:15;;;;;;;25.75;3.20;;;22.80;64.60;;;;;;7381965;19;20010;-85
2022/09/07 10:33:00;;;;;;;18.35;2.92;;;22.90;63.30;;;;;;7376525;19;20022;-85
2022/09/07 10:35:35;;;;;;;16.33;2.80;;;23.10;62.90;;;;;;7379338;19;20014;-85
2022/09/07 10:38:16;;;;;;;23.77;3.67;;;23.10;61.30;;;;;;7385089;19;20052;-85
2022/09/07 10:40:46;;;;;;;14.87;2.50;;;23.30;61.00;;;;;;7381530;19;20018;-83
2022/09/07 10:43:25;;;;;;;21.23;3.20;;;23.20;59.40;;;;;;7378852;19;20091;-85
2022/09/07 10:46:26;;;;;;;18.48;2.80;;;22.90;60.00;;;;;;7376096;19;20078;-85
2022/09/07 10:49:10;;;;;;;13.95;2.53;;;23.20;60.00;;;;;;7373583;19;20125;-85
2022/09/07 10:51:50;;;;;;;19.02;2.60;;;23.40;58.60;;;;;;7377709;19;20031;-84
2022/09/07 10:54:25;;;;;;;24.42;2.75;;;23.10;58.10;;;;;;7399736;19;20010;-84
2022/09/07 10:57:02;;;;;;;11.93;2.55;;;23.40;58.20;;;;;;7380066;19;20426;-85
2022/09/07 10:59:44;;;;;;;15.93;3.53;;;23.80;58.50;;;;;;7379285;19;20018;-85
2022/09/07 11:02:19;;;;;;;15.10;2.53;;;23.80;57.60;;;;;;7378598;19;20010;-83
2022/09/07 11:05:02;;;;;;;16.15;2.35;;;23.50;57.50;;;;;;7375333;19;20078;-83
2022/09/07 11:07:49;;;;;;;16.02;2.78;;;23.40;58.00;;;;;;7376872;19;20018;-83
2022/09/07 11:10:30;;;;;;;18.13;2.40;;;23.30;57.80;;;;;;7376215;19;20011;-83
2022/09/07 11:13:03;;;;;;;25.80;2.97;;;23.20;58.30;;;;;;7380757;19;20018;-84
2022/09/07 11:15:36;;;;;;;21.35;2.80;;;23.30;58.30;;;;;;7399937;19;20023;-84
2022/09/07 11:18:10;;;;;;;13.63;2.40;;;23.30;58.30;;;;;;7376049;19;20022;-84
2022/09/07 11:20:44;;;;;;;17.80;2.97;;;23.40;58.60;;;;;;7376084;19;20023;-83
2022/09/07 11:23:22;;;;;;;14.63;3.25;;;23.40;58.90;;;;;;7378763;19;20039;-85
2022/09/07 11:26:00;;;;;;;22.25;3.08;;;23.30;59.00;;;;;;7376494;19;20082;-84
2022/09/07 11:28:35;;;;;;;14.52;2.30;;;23.20;59.40;;;;;;7377106;19;20078;-84
2022/09/07 11:31:21;;;;;;;18.38;2.95;;;23.40;59.30;;;;;;7377075;19;20096;-86
2022/09/07 11:33:57;;;;;;;17.40;2.40;;;23.60;59.00;;;;;;7372424;19;20023;-84
2022/09/07 11:36:28;;;;;;;17.92;2.42;;;23.70;58.80;;;;;;7403185;19;20018;-85
2022/09/07 11:39:05;;;;;;;13.32;2.40;;;23.60;58.50;;;;;;7378183;19;20044;-85
2022/09/07 11:41:40;;;;;;;23.88;2.88;;;23.00;59.50;;;;;;7374157;19;20014;-84
2022/09/07 11:44:16;;;;;;;20.02;2.75;;;22.80;59.70;;;;;;7375710;19;20070;-85
2022/09/07 11:46:49;;;;;;;20.10;2.80;;;23.00;59.70;;;;;;7379914;19;20031;-85
2022/09/07 11:49:22;;;;;;;20.50;3.45;;;23.00;59.70;;;;;;7390872;19;20011;-86
2022/09/07 11:51:54;;;;;;;15.77;3.50;;;23.00;59.50;;;;;;7393043;19;20022;-85
2022/09/07 11:54:43;;;;;;;20.08;3.10;;;23.10;59.20;;;;;;7403858;19;20019;-85
2022/09/07 11:57:28;;;;;;;14.55;3.80;;;23.40;59.30;;;;;;7372248;19;20442;-84
2022/09/07 12:00:09;;;;;;;16.02;2.35;;;23.60;58.80;;;;;;7373043;19;20437;-85
2022/09/07 12:03:03;;;;;;;17.80;2.65;;;23.60;58.40;;;;;;7372973;19;20022;-86
2022/09/07 12:05:55;;;;;;;16.95;2.03;;;23.70;58.30;;;;;;7373232;19;20014;-85
2022/09/07 12:08:37;;;;;;;14.93;2.63;;;23.70;58.00;;;;;;7375337;19;20440;-85
2022/09/07 12:11:33;;;;;;;15.70;2.15;;;23.80;58.20;;;;;;7369588;19;20101;-84
2022/09/07 12:14:20;;;;;;;12.68;2.50;;;23.90;57.60;;;;;;7373636;19;20046;-85
2022/09/07 12:17:20;;;;;;;15.13;2.40;;;23.70;57.90;;;;;;7374117;19;20007;-84
2022/09/07 12:20:11;;;;;;;20.08;2.80;;;23.50;58.10;;;;;;7377785;19;20011;-85
2022/09/07 12:23:00;;;;;;;19.08;2.97;;;23.50;58.50;;;;;;7372567;19;20010;-84
2022/09/07 12:25:30;;;;;;;14.30;2.80;;;23.40;58.40;;;;;;7374284;19;20070;-84
2022/09/07 12:28:02;;;;;;;13.50;2.60;;;23.50;58.30;;;;;;7374487;19;20022;-84
2022/09/07 12:31:00;;;;;;;20.42;3.17;;;23.10;58.10;;;;;;7393277;19;20102;-84
2022/09/07 12:33:32;;;;;;;15.55;3.08;;;23.00;58.40;;;;;;7372204;19;20014;-85
2022/09/07 12:36:01;;;;;;;17.73;2.67;;;22.90;59.20;;;;;;7372314;19;20090;-85
2022/09/07 12:38:59;;;;;;;19.05;2.97;;;23.10;59.80;;;;;;7374410;19;20019;-84
2022/09/07 12:41:44;;;;;;;17.05;2.53;;;22.90;60.20;;;;;;7379363;19;20060;-84
2022/09/07 12:44:25;;;;;;;12.60;2.72;;;22.30;61.70;;;;;;7381857;19;20014;-84
2022/09/07 12:46:57;;;;;;;18.75;2.50;;;22.10;64.10;;;;;;7386562;19;20413;-85
2022/09/07 12:50:07;;;;;;;14.93;2.75;;;22.30;65.00;;;;;;7375461;19;20049;-85
2022/09/07 12:52:55;;;;;;;25.85;3.15;;;22.20;65.00;;;;;;7370869;19;20113;-85
2022/09/07 12:55:52;;;;;;;17.08;2.15;;;22.30;65.60;;;;;;7371487;19;20015;-85
2022/09/07 12:58:32;;;;;;;15.95;2.35;;;22.30;66.40;;;;;;7366885;19;20022;-85
2022/09/07 13:01:25;;;;;;;12.87;3.37;;;22.40;67.50;;;;;;7370497;19;20054;-85
2022/09/07 13:04:18;;;;;;;34.25;11.13;;;22.50;66.60;;;;;;7366868;19;20074;-85
2022/09/07 13:07:11;;;;;;;25.20;7.05;;;22.40;65.90;;;;;;7366646;19;20039;-85
2022/09/07 13:09:41;;;;;;;56.90;25.92;;;22.20;65.10;;;;;;7370811;19;20026;-84
2022/09/07 13:12:29;;;;;;;48.88;27.17;;;22.20;64.60;;;;;;7398776;19;20323;-86
2022/09/07 13:15:00;;;;;;;15.63;4.85;;;22.20;64.70;;;;;;7378194;19;20085;-84
2022/09/07 13:17:43;;;;;;;16.55;4.45;;;22.00;63.80;;;;;;7375879;19;20786;-84